sensor_id;sensor_type;location;lat;lon;timestamp;P1;durP1;ratioP1;P2;durP2;ratioP2
54557;SDS011;40452;50.080;20.040;2022-08-04T04:20:49;8.38;;;7.57;;
54557;SDS011;40452;50.080;20.040;2022-08-04T04:23:30;9.95;;;7.72;;
54557;SDS011;40452;50.080;20.040;2022-08-04T04:31:53;9.82;;;7.70;;
54557;SDS011;40452;50.080;20.040;2022-08-04T04:34:49;10.15;;;7.43;;
54557;SDS011;40452;50.080;20.040;2022-08-04T04:43:01;11.60;;;7.93;;
54557;SDS011;40452;50.080;20.040;2022-08-04T04:45:46;11.60;;;7.80;;
54557;SDS011;40452;50.080;20.040;2022-08-04T04:59:23;10.43;;;7.32;;
54557;SDS011;40452;50.080;20.040;2022-08-04T05:10:01;11.95;;;7.68;;
54557;SDS011;40452;50.080;20.040;2022-08-04T05:12:42;13.63;;;7.90;;
54557;SDS011;40452;50.080;20.040;2022-08-04T05:15:22;10.15;;;7.30;;
54557;SDS011;40452;50.080;20.040;2022-08-04T05:17:54;11.32;;;8.07;;
54557;SDS011;40452;50.080;20.040;2022-08-04T05:20:24;13.52;;;10.15;;
54557;SDS011;40452;50.080;20.040;2022-08-04T05:23:14;18.27;;;10.52;;
54557;SDS011;40452;50.080;20.040;2022-08-04T05:26:09;15.57;;;10.32;;
54557;SDS011;40452;50.080;20.040;2022-08-04T05:28:35;17.95;;;10.18;;
54557;SDS011;40452;50.080;20.040;2022-08-04T05:31:09;13.38;;;9.95;;
54557;SDS011;40452;50.080;20.040;2022-08-04T05:33:52;15.27;;;9.68;;
54557;SDS011;40452;50.080;20.040;2022-08-04T05:36:43;10.75;;;9.07;;
54557;SDS011;40452;50.080;20.040;2022-08-04T05:39:16;16.65;;;9.70;;
54557;SDS011;40452;50.080;20.040;2022-08-04T05:41:45;19.00;;;8.98;;
54557;SDS011;40452;50.080;20.040;2022-08-04T05:44:16;17.52;;;10.18;;
54557;SDS011;40452;50.080;20.040;2022-08-04T05:46:44;28.73;;;10.43;;
54557;SDS011;40452;50.080;20.040;2022-08-04T05:49:12;15.20;;;9.48;;
54557;SDS011;40452;50.080;20.040;2022-08-04T16:12:24;6.47;;;3.30;;
54557;SDS011;40452;50.080;20.040;2022-08-04T16:15:34;5.15;;;3.20;;
54557;SDS011;40452;50.080;20.040;2022-08-04T16:18:09;6.88;;;3.33;;
54557;SDS011;40452;50.080;20.040;2022-08-04T16:20:36;5.43;;;3.38;;
54557;SDS011;40452;50.080;20.040;2022-08-04T16:25:58;7.40;;;3.50;;
54557;SDS011;40452;50.080;20.040;2022-08-04T16:31:06;4.97;;;4.03;;
54557;SDS011;40452;50.080;20.040;2022-08-04T16:33:33;8.60;;;4.00;;
54557;SDS011;40452;50.080;20.040;2022-08-04T16:36:00;4.57;;;3.30;;
54557;SDS011;40452;50.080;20.040;2022-08-04T16:38:26;8.07;;;3.70;;
54557;SDS011;40452;50.080;20.040;2022-08-04T16:40:55;8.43;;;3.63;;
54557;SDS011;40452;50.080;20.040;2022-08-04T16:43:29;3.85;;;3.33;;
54557;SDS011;40452;50.080;20.040;2022-08-04T16:46:00;6.00;;;3.30;;
54557;SDS011;40452;50.080;20.040;2022-08-04T16:48:28;5.28;;;3.55;;
54557;SDS011;40452;50.080;20.040;2022-08-04T16:51:31;5.95;;;3.22;;
54557;SDS011;40452;50.080;20.040;2022-08-04T16:53:55;5.95;;;3.05;;
54557;SDS011;40452;50.080;20.040;2022-08-04T16:56:29;4.43;;;3.10;;
54557;SDS011;40452;50.080;20.040;2022-08-04T16:58:56;4.68;;;3.33;;
54557;SDS011;40452;50.080;20.040;2022-08-04T17:01:21;6.13;;;3.00;;
54557;SDS011;40452;50.080;20.040;2022-08-04T17:03:48;5.45;;;3.28;;
54557;SDS011;40452;50.080;20.040;2022-08-04T17:06:15;5.38;;;2.90;;
54557;SDS011;40452;50.080;20.040;2022-08-04T17:08:42;10.48;;;3.63;;
54557;SDS011;40452;50.080;20.040;2022-08-04T17:11:09;5.57;;;3.20;;
54557;SDS011;40452;50.080;20.040;2022-08-04T17:13:40;3.25;;;2.92;;
54557;SDS011;40452;50.080;20.040;2022-08-04T17:16:08;6.57;;;3.20;;
54557;SDS011;40452;50.080;20.040;2022-08-04T17:18:38;4.15;;;3.42;;
54557;SDS011;40452;50.080;20.040;2022-08-04T17:21:10;5.07;;;2.88;;
54557;SDS011;40452;50.080;20.040;2022-08-04T17:23:39;4.95;;;3.03;;
54557;SDS011;40452;50.080;20.040;2022-08-04T17:28:44;4.72;;;3.10;;
54557;SDS011;40452;50.080;20.040;2022-08-04T17:31:11;7.40;;;3.55;;
54557;SDS011;40452;50.080;20.040;2022-08-04T17:33:37;5.10;;;3.05;;
54557;SDS011;40452;50.080;20.040;2022-08-04T17:36:07;6.57;;;3.22;;
54557;SDS011;40452;50.080;20.040;2022-08-04T17:38:37;9.95;;;3.80;;
54557;SDS011;40452;50.080;20.040;2022-08-04T17:41:11;5.93;;;3.33;;
54557;SDS011;40452;50.080;20.040;2022-08-04T17:54:00;6.55;;;3.50;;
54557;SDS011;40452;50.080;20.040;2022-08-04T17:56:37;5.57;;;3.90;;
54557;SDS011;40452;50.080;20.040;2022-08-04T18:01:42;6.45;;;3.60;;
54557;SDS011;40452;50.080;20.040;2022-08-04T18:04:23;6.55;;;3.53;;
54557;SDS011;40452;50.080;20.040;2022-08-04T18:06:53;5.40;;;3.42;;
54557;SDS011;40452;50.080;20.040;2022-08-04T18:09:24;3.92;;;3.50;;
54557;SDS011;40452;50.080;20.040;2022-08-04T18:11:52;6.38;;;3.88;;
54557;SDS011;40452;50.080;20.040;2022-08-04T18:14:19;4.78;;;3.17;;
54557;SDS011;40452;50.080;20.040;2022-08-04T18:16:44;5.57;;;3.47;;
54557;SDS011;40452;50.080;20.040;2022-08-04T18:19:10;6.93;;;3.58;;
54557;SDS011;40452;50.080;20.040;2022-08-04T18:21:37;7.32;;;3.63;;
54557;SDS011;40452;50.080;20.040;2022-08-04T18:24:03;4.97;;;3.75;;
54557;SDS011;40452;50.080;20.040;2022-08-04T18:26:29;6.55;;;3.65;;
54557;SDS011;40452;50.080;20.040;2022-08-04T18:28:55;5.40;;;3.65;;
54557;SDS011;40452;50.080;20.040;2022-08-04T18:31:21;7.65;;;3.60;;
54557;SDS011;40452;50.080;20.040;2022-08-04T18:33:46;8.30;;;3.75;;
54557;SDS011;40452;50.080;20.040;2022-08-04T18:36:12;6.32;;;3.85;;
54557;SDS011;40452;50.080;20.040;2022-08-04T18:38:38;6.32;;;3.60;;
54557;SDS011;40452;50.080;20.040;2022-08-04T18:41:03;4.93;;;3.58;;
54557;SDS011;40452;50.080;20.040;2022-08-04T18:43:29;4.78;;;3.53;;
54557;SDS011;40452;50.080;20.040;2022-08-04T18:45:54;6.35;;;4.18;;
54557;SDS011;40452;50.080;20.040;2022-08-04T18:48:20;8.02;;;3.72;;
54557;SDS011;40452;50.080;20.040;2022-08-04T18:50:46;5.85;;;3.83;;
54557;SDS011;40452;50.080;20.040;2022-08-04T18:53:11;7.35;;;4.10;;
54557;SDS011;40452;50.080;20.040;2022-08-04T18:55:37;7.20;;;3.78;;
54557;SDS011;40452;50.080;20.040;2022-08-04T18:58:02;4.78;;;4.03;;
54557;SDS011;40452;50.080;20.040;2022-08-04T19:00:28;5.68;;;3.50;;
54557;SDS011;40452;50.080;20.040;2022-08-04T19:02:53;5.32;;;3.83;;
54557;SDS011;40452;50.080;20.040;2022-08-04T19:05:19;6.43;;;3.75;;
54557;SDS011;40452;50.080;20.040;2022-08-04T19:07:44;5.68;;;4.10;;
54557;SDS011;40452;50.080;20.040;2022-08-04T19:10:10;5.47;;;3.60;;
54557;SDS011;40452;50.080;20.040;2022-08-04T19:12:36;5.35;;;3.90;;
54557;SDS011;40452;50.080;20.040;2022-08-04T19:15:01;6.47;;;3.55;;
54557;SDS011;40452;50.080;20.040;2022-08-04T19:17:27;5.97;;;3.70;;
54557;SDS011;40452;50.080;20.040;2022-08-04T19:19:53;9.60;;;4.10;;
54557;SDS011;40452;50.080;20.040;2022-08-04T19:22:18;5.80;;;3.97;;
54557;SDS011;40452;50.080;20.040;2022-08-04T19:24:44;7.18;;;4.13;;
54557;SDS011;40452;50.080;20.040;2022-08-04T19:27:09;8.82;;;4.10;;
54557;SDS011;40452;50.080;20.040;2022-08-04T19:29:36;9.05;;;3.85;;
54557;SDS011;40452;50.080;20.040;2022-08-04T19:32:02;10.45;;;3.95;;
54557;SDS011;40452;50.080;20.040;2022-08-04T19:34:28;9.50;;;3.88;;
54557;SDS011;40452;50.080;20.040;2022-08-04T19:36:53;6.13;;;3.90;;
54557;SDS011;40452;50.080;20.040;2022-08-04T19:39:19;16.27;;;4.25;;
54557;SDS011;40452;50.080;20.040;2022-08-04T19:41:44;8.98;;;3.90;;
54557;SDS011;40452;50.080;20.040;2022-08-04T19:44:11;9.30;;;3.92;;
54557;SDS011;40452;50.080;20.040;2022-08-04T19:46:37;13.00;;;3.92;;
54557;SDS011;40452;50.080;20.040;2022-08-04T19:49:02;7.43;;;3.80;;
54557;SDS011;40452;50.080;20.040;2022-08-04T19:51:28;12.40;;;3.90;;
54557;SDS011;40452;50.080;20.040;2022-08-04T19:53:56;9.48;;;4.55;;
54557;SDS011;40452;50.080;20.040;2022-08-04T19:56:23;9.40;;;4.35;;
54557;SDS011;40452;50.080;20.040;2022-08-04T19:58:48;6.90;;;4.47;;
54557;SDS011;40452;50.080;20.040;2022-08-04T20:01:14;10.02;;;4.28;;
54557;SDS011;40452;50.080;20.040;2022-08-04T20:03:39;5.43;;;4.00;;
54557;SDS011;40452;50.080;20.040;2022-08-04T20:06:05;12.70;;;4.40;;
54557;SDS011;40452;50.080;20.040;2022-08-04T20:08:30;10.25;;;4.80;;
54557;SDS011;40452;50.080;20.040;2022-08-04T20:10:56;5.40;;;3.83;;
54557;SDS011;40452;50.080;20.040;2022-08-04T20:13:22;8.90;;;4.63;;
54557;SDS011;40452;50.080;20.040;2022-08-04T20:15:48;7.50;;;4.10;;
54557;SDS011;40452;50.080;20.040;2022-08-04T20:18:14;8.05;;;4.22;;
54557;SDS011;40452;50.080;20.040;2022-08-04T20:20:39;7.47;;;4.10;;
